Time;durP1;ratioP1;P1;durP2;ratioP2;P2;SDS_P1;SDS_P2;PMS_P1;PMS_P2;Temp;Humidity;BMP_temperature;BMP_pressure;BME280_temperature;BME280_humidity;BME280_pressure;Samples;Min_cycle;Max_cycle;Signal;HPM_P1;HPM_P2
2021/08/21 00:01:57;;;;;;;6.57;3.55;;;18.00;99.90;;;;;;5075646;28;20088;-81
2021/08/21 00:04:22;;;;;;;7.78;3.60;;;18.00;99.90;;;;;;5076165;28;20092;-82
2021/08/21 00:06:48;;;;;;;5.65;3.60;;;18.00;99.90;;;;;;5077270;28;20032;-82
2021/08/21 00:09:14;;;;;;;7.28;4.28;;;17.90;99.90;;;;;;5060100;28;20017;-82
2021/08/21 00:11:40;;;;;;;6.22;3.65;;;17.90;99.90;;;;;;5039444;28;20082;-81
2021/08/21 00:14:06;;;;;;;6.68;3.85;;;17.90;99.90;;;;;;5057026;28;20039;-81
2021/08/21 00:16:32;;;;;;;6.50;3.70;;;17.90;99.90;;;;;;5056471;28;20047;-81
2021/08/21 00:18:58;;;;;;;6.32;4.07;;;17.90;99.90;;;;;;5074285;28;20468;-82
2021/08/21 00:21:24;;;;;;;8.93;3.75;;;17.90;99.90;;;;;;5058660;28;20116;-81
2021/08/21 00:23:50;;;;;;;6.93;4.00;;;17.90;99.90;;;;;;5076705;28;20036;-83
2021/08/21 00:26:15;;;;;;;7.57;4.10;;;17.90;99.90;;;;;;5076425;28;20130;-82
2021/08/21 00:28:41;;;;;;;6.55;4.30;;;17.90;99.90;;;;;;5059704;28;20021;-82
2021/08/21 00:31:07;;;;;;;6.53;3.80;;;17.80;99.90;;;;;;5056469;28;20064;-81
2021/08/21 00:33:33;;;;;;;6.70;4.22;;;17.80;99.90;;;;;;5037025;28;20085;-82
2021/08/21 00:35:58;;;;;;;6.80;3.83;;;17.80;99.90;;;;;;5061852;28;20040;-81
2021/08/21 00:38:24;;;;;;;7.88;3.95;;;17.80;99.90;;;;;;5075250;28;20024;-81
2021/08/21 00:40:50;;;;;;;6.72;3.95;;;17.70;99.90;;;;;;5076269;28;20027;-83
2021/08/21 00:43:19;;;;;;;6.15;4.00;;;17.70;99.90;;;;;;5064813;28;20025;-81
2021/08/21 00:45:46;;;;;;;6.53;3.92;;;17.70;99.90;;;;;;5056243;28;20538;-81
2021/08/21 00:48:12;;;;;;;7.75;3.80;;;17.70;99.90;;;;;;5075105;28;20032;-81
2021/08/21 00:50:37;;;;;;;6.20;4.15;;;17.70;99.90;;;;;;5076187;28;20024;-82
2021/08/21 00:53:03;;;;;;;10.07;4.30;;;17.60;99.90;;;;;;5064022;28;20033;-81
2021/08/21 00:55:29;;;;;;;7.63;4.22;;;17.60;99.90;;;;;;5075779;28;20081;-81
2021/08/21 00:57:55;;;;;;;6.93;4.13;;;17.50;99.90;;;;;;5075548;28;20107;-81
2021/08/21 01:00:21;;;;;;;7.43;4.30;;;17.50;99.90;;;;;;5054183;28;20370;-81
2021/08/21 01:02:47;;;;;;;8.13;4.07;;;17.50;99.90;;;;;;5056094;28;20473;-82
2021/08/21 01:05:16;;;;;;;7.78;4.28;;;17.40;99.90;;;;;;5055656;28;20013;-81
2021/08/21 01:07:45;;;;;;;8.10;4.22;;;17.40;99.90;;;;;;5060634;28;20484;-81
2021/08/21 01:10:14;;;;;;;6.43;3.97;;;17.40;99.90;;;;;;5073457;28;20033;-82
2021/08/21 01:12:42;;;;;;;7.13;4.18;;;17.40;99.90;;;;;;5057798;28;20135;-81
2021/08/21 01:15:08;;;;;;;7.18;3.83;;;17.40;99.90;;;;;;5075647;28;20029;-81
2021/08/21 01:17:35;;;;;;;7.28;4.25;;;17.30;99.90;;;;;;5068613;28;20044;-82
2021/08/21 01:20:01;;;;;;;9.82;4.32;;;17.30;99.90;;;;;;5055780;28;20441;-83
2021/08/21 01:22:29;;;;;;;8.27;4.50;;;17.30;99.90;;;;;;5056141;28;20075;-81
2021/08/21 01:24:55;;;;;;;6.35;4.00;;;17.30;99.90;;;;;;5055990;28;20459;-82
2021/08/21 01:27:23;;;;;;;7.43;4.25;;;17.30;99.90;;;;;;5075250;28;20167;-82
2021/08/21 01:29:50;;;;;;;8.82;4.80;;;17.40;99.90;;;;;;5075636;28;20043;-82
2021/08/21 01:32:17;;;;;;;7.70;4.07;;;17.30;99.90;;;;;;5058385;28;20033;-81
2021/08/21 01:34:43;;;;;;;5.60;3.50;;;17.40;99.90;;;;;;5053385;28;20033;-82
2021/08/21 01:37:09;;;;;;;6.97;4.15;;;17.30;99.90;;;;;;5055575;28;20488;-81
2021/08/21 01:39:35;;;;;;;7.72;3.80;;;17.30;99.90;;;;;;5055378;28;20078;-82
2021/08/21 01:42:01;;;;;;;6.63;4.13;;;17.30;99.90;;;;;;5055894;28;20390;-81
2021/08/21 01:44:26;;;;;;;8.23;4.03;;;17.20;99.90;;;;;;5056340;28;20085;-82
2021/08/21 01:46:52;;;;;;;6.63;4.07;;;17.20;99.90;;;;;;5064229;28;20116;-81
2021/08/21 01:49:22;;;;;;;6.93;4.13;;;17.20;99.90;;;;;;5075251;28;20037;-81
2021/08/21 01:51:49;;;;;;;7.10;4.15;;;17.10;99.90;;;;;;5072369;28;20141;-81
2021/08/21 01:54:23;;;;;;;9.32;4.20;;;17.10;99.90;;;;;;5038449;28;20435;-82
2021/08/21 01:56:57;;;;;;;6.13;3.95;;;17.10;99.90;;;;;;5038146;28;20491;-81
2021/08/21 01:59:30;;;;;;;5.95;3.72;;;17.00;99.90;;;;;;5037595;28;20067;-81
2021/08/21 02:01:56;;;;;;;7.70;4.00;;;17.10;99.90;;;;;;5067220;28;20115;-82
2021/08/21 02:04:23;;;;;;;7.00;3.00;;;17.00;99.90;;;;;;5073405;28;20036;-81
2021/08/21 02:06:49;;;;;;;6.32;3.97;;;17.00;99.90;;;;;;5074044;28;20033;-81
2021/08/21 02:09:17;;;;;;;6.38;3.90;;;17.00;99.90;;;;;;5071061;28;20029;-81
2021/08/21 02:11:43;;;;;;;6.20;3.80;;;16.90;99.90;;;;;;5051917;28;20029;-83
2021/08/21 02:14:09;;;;;;;6.88;4.45;;;16.90;99.90;;;;;;5063862;28;20048;-81
2021/08/21 02:16:35;;;;;;;9.00;4.63;;;16.80;99.90;;;;;;5056445;28;20025;-82
2021/08/21 02:19:01;;;;;;;6.38;4.15;;;16.80;99.90;;;;;;5054763;28;20035;-83
2021/08/21 02:21:27;;;;;;;10.10;4.60;;;16.80;99.90;;;;;;5074506;28;20389;-81
2021/08/21 02:23:54;;;;;;;8.15;4.18;;;16.80;99.90;;;;;;5069925;28;20028;-81
2021/08/21 02:26:20;;;;;;;9.05;4.53;;;16.70;99.90;;;;;;5065711;28;20082;-81
2021/08/21 02:28:45;;;;;;;6.35;4.07;;;16.80;99.90;;;;;;5073719;28;20021;-81
2021/08/21 02:31:11;;;;;;;6.82;3.70;;;16.80;99.90;;;;;;5072950;28;20797;-82
2021/08/21 02:33:37;;;;;;;6.78;4.03;;;16.80;99.90;;;;;;5068084;28;20041;-81
2021/08/21 02:36:03;;;;;;;8.18;4.25;;;16.70;99.90;;;;;;5052805;28;20113;-82
2021/08/21 02:38:29;;;;;;;7.22;4.18;;;16.70;99.90;;;;;;5055944;28;20029;-81
2021/08/21 02:40:54;;;;;;;7.22;4.18;;;16.60;99.90;;;;;;5069929;28;20028;-81
2021/08/21 02:43:20;;;;;;;6.82;4.28;;;16.60;99.90;;;;;;5076563;28;20032;-81
2021/08/21 02:45:47;;;;;;;9.48;4.95;;;16.60;99.90;;;;;;5076988;28;20044;-81
2021/08/21 02:48:12;;;;;;;7.63;4.63;;;16.60;99.90;;;;;;5048425;28;20047;-82
2021/08/21 02:50:38;;;;;;;6.97;4.20;;;16.50;99.90;;;;;;5064961;28;20102;-82
2021/08/21 02:53:04;;;;;;;8.38;4.57;;;16.50;99.90;;;;;;5054966;28;20028;-82
2021/08/21 02:55:29;;;;;;;10.85;4.72;;;16.50;99.90;;;;;;5076113;28;20039;-81
2021/08/21 02:57:55;;;;;;;6.10;4.13;;;16.50;99.90;;;;;;5056065;28;20047;-82
2021/08/21 03:00:21;;;;;;;7.25;4.45;;;16.50;99.90;;;;;;5060850;28;20028;-83
2021/08/21 03:02:46;;;;;;;7.82;4.82;;;16.40;99.90;;;;;;5077553;28;20078;-83
2021/08/21 03:05:12;;;;;;;8.55;4.60;;;16.40;99.90;;;;;;5058717;28;20155;-82
2021/08/21 03:07:38;;;;;;;7.40;4.63;;;16.40;99.90;;;;;;5038865;28;20087;-82
2021/08/21 03:10:05;;;;;;;7.30;4.10;;;16.30;99.90;;;;;;5056586;28;20025;-82
2021/08/21 03:12:32;;;;;;;8.95;4.97;;;16.30;99.90;;;;;;5062375;28;20100;-82
2021/08/21 03:14:58;;;;;;;8.40;4.20;;;16.30;99.90;;;;;;5077857;28;20028;-82
2021/08/21 03:17:24;;;;;;;7.07;4.45;;;16.30;99.90;;;;;;5075549;28;20039;-82
2021/08/21 03:19:49;;;;;;;8.52;4.70;;;16.30;99.90;;;;;;5073347;28;20052;-82
2021/08/21 03:22:15;;;;;;;8.88;4.38;;;16.30;99.90;;;;;;5072117;28;20417;-82
2021/08/21 03:24:40;;;;;;;6.72;4.43;;;16.30;99.90;;;;;;5078639;28;20060;-82
2021/08/21 03:27:06;;;;;;;8.57;4.20;;;16.30;99.90;;;;;;5078564;28;20025;-82
2021/08/21 03:29:32;;;;;;;8.65;4.60;;;16.30;99.90;;;;;;5064607;28;20021;-82
2021/08/21 03:31:57;;;;;;;8.63;4.40;;;16.30;99.90;;;;;;5058065;28;20041;-82
2021/08/21 03:34:24;;;;;;;7.03;4.47;;;16.20;99.90;;;;;;5068335;28;20480;-82
2021/08/21 03:36:51;;;;;;;9.15;4.95;;;16.20;99.90;;;;;;5066125;28;20036;-83
2021/08/21 03:39:17;;;;;;;7.88;4.88;;;16.20;99.90;;;;;;5056384;28;20028;-82
2021/08/21 03:41:43;;;;;;;8.80;4.60;;;16.20;99.90;;;;;;5038055;28;20124;-82
2021/08/21 03:44:08;;;;;;;6.90;4.45;;;16.20;99.90;;;;;;5057706;28;20029;-82
2021/08/21 03:46:34;;;;;;;7.57;4.57;;;16.30;99.90;;;;;;5056592;28;20032;-82
2021/08/21 03:48:59;;;;;;;9.23;5.57;;;16.20;99.90;;;;;;5057555;28;20051;-82
2021/08/21 03:51:25;;;;;;;8.00;4.65;;;16.20;99.90;;;;;;5066536;28;20036;-82
2021/08/21 03:53:51;;;;;;;9.75;4.80;;;16.20;99.90;;;;;;5057576;28;20102;-83
2021/08/21 03:56:16;;;;;;;8.95;5.15;;;16.20;99.90;;;;;;5056584;28;20036;-81
2021/08/21 03:58:42;;;;;;;7.72;4.68;;;16.20;99.90;;;;;;5038122;28;20044;-82
2021/08/21 04:01:07;;;;;;;6.72;4.60;;;16.20;99.90;;;;;;5054734;28;20283;-82
2021/08/21 04:03:34;;;;;;;9.20;4.72;;;16.20;99.90;;;;;;5056046;28;20040;-82
2021/08/21 04:06:00;;;;;;;9.48;4.50;;;16.20;99.90;;;;;;5055902;28;20028;-81
2021/08/21 04:08:25;;;;;;;8.30;4.53;;;16.10;99.90;;;;;;5055263;28;20460;-82
2021/08/21 04:10:51;;;;;;;10.23;4.60;;;16.10;99.90;;;;;;5056927;28;20093;-82
2021/08/21 04:13:16;;;;;;;7.30;4.53;;;16.10;99.90;;;;;;5055574;28;20080;-82
2021/08/21 04:15:42;;;;;;;6.75;4.47;;;16.10;99.90;;;;;;5055725;28;20025;-82
2021/08/21 04:18:08;;;;;;;8.57;4.28;;;16.00;99.90;;;;;;5067872;28;20366;-80
2021/08/21 04:20:33;;;;;;;8.82;4.93;;;16.00;99.90;;;;;;5062783;28;20044;-82
2021/08/21 04:22:59;;;;;;;7.15;4.65;;;16.00;99.90;;;;;;5056162;28;20051;-82
2021/08/21 04:25:24;;;;;;;7.55;4.47;;;16.00;99.90;;;;;;5045569;28;20029;-81
2021/08/21 04:27:52;;;;;;;7.80;4.95;;;16.00;99.90;;;;;;5074854;28;20024;-82
2021/08/21 04:30:18;;;;;;;9.02;4.47;;;16.00;99.90;;;;;;5057051;28;20025;-81
2021/08/21 04:32:44;;;;;;;8.18;4.78;;;16.00;99.90;;;;;;5060642;23;20071;-88
2021/08/21 04:35:10;;;;;;;8.10;4.07;;;16.00;99.90;;;;;;5058017;28;20029;-89
2021/08/21 04:37:36;;;;;;;7.25;4.50;;;16.00;99.90;;;;;;5078407;28;20017;-88
2021/08/21 04:40:05;;;;;;;6.85;4.25;;;16.00;99.90;;;;;;5075515;28;20031;-88
2021/08/21 04:42:31;;;;;;;9.18;4.30;;;16.00;99.90;;;;;;5062002;28;20033;-89
2021/08/21 04:44:59;;;;;;;7.45;4.40;;;16.00;99.90;;;;;;5053737;28;20032;-88
2021/08/21 04:47:26;;;;;;;9.43;4.32;;;16.10;99.90;;;;;;5053294;28;20021;-89
2021/08/21 04:49:52;;;;;;;8.40;4.65;;;16.10;99.90;;;;;;5065653;28;20024;-88
2021/08/21 04:52:18;;;;;;;7.65;4.28;;;16.10;99.90;;;;;;5089765;28;20029;-88
2021/08/21 04:54:43;;;;;;;8.55;4.40;;;16.10;99.90;;;;;;5072735;28;20024;-88
2021/08/21 04:57:09;;;;;;;7.30;4.35;;;16.10;99.90;;;;;;5072711;28;20060;-89
2021/08/21 04:59:35;;;;;;;9.90;4.10;;;16.20;99.90;;;;;;5057886;28;20101;-89
2021/08/21 05:02:00;;;;;;;6.50;3.92;;;16.20;99.90;;;;;;5069239;28;20101;-89
2021/08/21 05:04:26;;;;;;;7.28;4.22;;;16.30;99.90;;;;;;5069564;28;20021;-88
2021/08/21 05:06:51;;;;;;;8.50;4.13;;;16.40;99.90;;;;;;5074551;28;20052;-88
2021/08/21 05:09:17;;;;;;;7.28;3.60;;;16.40;99.90;;;;;;5053798;28;20025;-89
2021/08/21 05:11:42;;;;;;;7.82;3.92;;;16.50;99.90;;;;;;5053298;28;20036;-89
2021/08/21 05:14:08;;;;;;;7.57;4.28;;;16.60;99.90;;;;;;5053784;28;20395;-89
2021/08/21 05:16:36;;;;;;;8.18;4.00;;;16.60;99.90;;;;;;5064848;28;20238;-88
2021/08/21 05:19:10;;;;;;;7.93;4.35;;;16.70;99.90;;;;;;5064759;28;20032;-89
2021/08/21 05:21:47;;;;;;;9.43;4.20;;;16.70;99.90;;;;;;5072625;28;20031;-88
2021/08/21 05:24:12;;;;;;;7.35;4.07;;;16.80;99.90;;;;;;5072321;28;20665;-88
2021/08/21 05:26:39;;;;;;;6.10;3.70;;;16.90;99.90;;;;;;5072327;28;20143;-88
2021/08/21 05:29:05;;;;;;;7.70;3.53;;;17.00;99.90;;;;;;5060779;28;20485;-88
2021/08/21 05:31:31;;;;;;;6.40;3.70;;;17.00;99.90;;;;;;5052444;28;20033;-88
2021/08/21 05:33:57;;;;;;;8.07;3.78;;;17.10;99.90;;;;;;5054678;28;20029;-88
2021/08/21 05:36:23;;;;;;;6.47;3.85;;;17.20;99.90;;;;;;5073550;28;20036;-88
2021/08/21 05:38:49;;;;;;;6.35;4.05;;;17.20;99.90;;;;;;5073058;28;20037;-88
2021/08/21 05:41:14;;;;;;;6.95;4.18;;;17.20;99.90;;;;;;5074299;28;20416;-88
2021/08/21 05:43:40;;;;;;;7.40;4.30;;;17.30;99.90;;;;;;5089510;28;20325;-88
2021/08/21 05:46:05;;;;;;;7.53;4.50;;;17.30;99.90;;;;;;5087360;28;20039;-88
2021/08/21 05:48:31;;;;;;;6.88;3.85;;;17.30;99.90;;;;;;5085603;28;20491;-87
2021/08/21 05:50:56;;;;;;;6.03;3.67;;;17.30;99.90;;;;;;5087301;28;20060;-88
2021/08/21 05:53:22;;;;;;;7.60;4.00;;;17.50;99.90;;;;;;5070334;28;20033;-88
2021/08/21 05:55:48;;;;;;;6.72;3.55;;;17.50;99.90;;;;;;5062944;28;20033;-88
2021/08/21 05:58:13;;;;;;;7.10;4.10;;;17.50;99.90;;;;;;5049970;28;20029;-87
2021/08/21 06:00:39;;;;;;;6.75;4.25;;;17.60;99.90;;;;;;5049965;28;20043;-88
2021/08/21 06:03:04;;;;;;;6.00;3.88;;;17.60;99.90;;;;;;5050073;28;20064;-88
2021/08/21 06:05:30;;;;;;;7.50;4.15;;;17.60;99.90;;;;;;5080117;28;20021;-88
2021/08/21 06:07:55;;;;;;;6.70;4.15;;;17.70;99.90;;;;;;5049832;28;20009;-88
2021/08/21 06:10:21;;;;;;;7.72;4.30;;;17.60;99.90;;;;;;5050391;28;20032;-88
2021/08/21 06:12:47;;;;;;;8.77;4.18;;;17.70;99.90;;;;;;5051729;28;20357;-89
2021/08/21 06:15:13;;;;;;;7.30;4.30;;;17.70;99.90;;;;;;5069287;28;20113;-88
2021/08/21 06:17:39;;;;;;;9.18;5.07;;;17.70;99.90;;;;;;5074178;28;20017;-88
2021/08/21 06:20:05;;;;;;;10.75;4.53;;;17.70;99.90;;;;;;5070940;28;20120;-89
2021/08/21 06:22:31;;;;;;;7.55;4.28;;;17.70;99.90;;;;;;5054220;28;20062;-88
2021/08/21 06:24:57;;;;;;;8.65;4.50;;;17.70;99.90;;;;;;5055801;28;20141;-88
2021/08/21 06:27:22;;;;;;;9.40;4.82;;;17.70;99.90;;;;;;5074827;28;20032;-88
2021/08/21 06:29:48;;;;;;;6.72;4.40;;;17.60;99.90;;;;;;5072433;28;20024;-89
2021/08/21 06:32:13;;;;;;;7.88;4.30;;;17.70;99.90;;;;;;5073450;28;20123;-88
2021/08/21 06:34:39;;;;;;;8.18;4.82;;;17.70;99.90;;;;;;5073241;28;20492;-88
2021/08/21 06:37:08;;;;;;;7.18;4.70;;;17.70;99.90;;;;;;5072981;28;20028;-87
2021/08/21 06:39:34;;;;;;;9.73;4.95;;;17.70;99.90;;;;;;5072864;28;20112;-88
2021/08/21 06:42:01;;;;;;;6.90;4.47;;;17.80;99.90;;;;;;5074682;28;20036;-88
2021/08/21 06:44:27;;;;;;;8.00;4.80;;;17.90;99.90;;;;;;5069449;28;20155;-89
2021/08/21 06:46:52;;;;;;;9.68;4.72;;;17.90;99.90;;;;;;5053352;28;20070;-88
2021/08/21 06:49:18;;;;;;;8.23;4.97;;;18.10;99.90;;;;;;5055760;28;20080;-89
2021/08/21 06:51:43;;;;;;;9.07;4.80;;;18.20;99.90;;;;;;5053312;28;20029;-89
2021/08/21 06:54:09;;;;;;;7.57;4.65;;;18.20;99.90;;;;;;5054971;28;20108;-89
2021/08/21 06:56:34;;;;;;;9.02;5.10;;;18.20;99.90;;;;;;5069594;28;20021;-89
2021/08/21 06:59:00;;;;;;;8.00;4.65;;;18.30;99.90;;;;;;5069080;28;20029;-89
2021/08/21 07:01:27;;;;;;;6.45;4.25;;;18.40;99.90;;;;;;5055073;28;20363;-90
2021/08/21 07:03:53;;;;;;;7.72;5.18;;;18.50;99.90;;;;;;5081032;28;20021;-89
2021/08/21 07:06:18;;;;;;;11.05;5.07;;;18.60;99.90;;;;;;5073091;28;20491;-90
2021/08/21 07:08:44;;;;;;;7.85;4.93;;;18.80;99.90;;;;;;5072561;28;20028;-89
2021/08/21 07:11:09;;;;;;;6.85;4.50;;;18.90;99.90;;;;;;5072571;28;20035;-89
2021/08/21 07:13:35;;;;;;;7.47;4.40;;;19.10;99.90;;;;;;5072971;28;20067;-90
2021/08/21 07:16:00;;;;;;;10.15;4.85;;;19.20;99.90;;;;;;5074265;28;20365;-89
2021/08/21 07:18:26;;;;;;;8.23;5.00;;;19.20;99.90;;;;;;5068068;28;20043;-89
2021/08/21 07:20:51;;;;;;;9.95;4.80;;;19.20;99.90;;;;;;5089603;28;20033;-89
2021/08/21 07:23:17;;;;;;;8.02;5.22;;;18.80;99.90;;;;;;5089457;28;20048;-89
2021/08/21 07:25:44;;;;;;;8.45;4.82;;;18.70;99.90;;;;;;5088929;28;20055;-89
2021/08/21 07:28:10;;;;;;;8.43;4.50;;;18.60;99.90;;;;;;5062371;28;20055;-89
2021/08/21 07:30:36;;;;;;;7.07;4.50;;;18.60;99.90;;;;;;5052879;28;20025;-88
2021/08/21 07:33:02;;;;;;;7.95;4.10;;;18.60;99.90;;;;;;5052243;28;20064;-89
2021/08/21 07:35:27;;;;;;;7.72;4.50;;;18.80;99.90;;;;;;5058011;28;20029;-89
2021/08/21 07:37:53;;;;;;;8.20;4.65;;;19.10;99.90;;;;;;5064489;28;20111;-89
2021/08/21 07:40:18;;;;;;;8.82;4.80;;;19.40;99.90;;;;;;5073640;28;20053;-90
2021/08/21 07:42:44;;;;;;;9.20;5.03;;;19.70;99.90;;;;;;5072630;28;20070;-89
2021/08/21 07:45:10;;;;;;;9.18;4.55;;;19.80;99.90;;;;;;5059813;28;20520;-88
2021/08/21 07:47:36;;;;;;;8.45;4.38;;;20.00;99.90;;;;;;5069312;28;20017;-88
2021/08/21 07:50:02;;;;;;;9.40;4.70;;;20.20;99.90;;;;;;5052810;28;20035;-89
2021/08/21 07:52:28;;;;;;;6.75;4.05;;;20.30;99.90;;;;;;5053199;28;20070;-89
2021/08/21 07:54:56;;;;;;;8.45;4.38;;;20.50;99.90;;;;;;5064588;28;20036;-89
2021/08/21 07:57:21;;;;;;;8.38;4.00;;;20.60;99.90;;;;;;5069987;28;20032;-89
2021/08/21 07:59:47;;;;;;;6.78;4.15;;;20.80;99.90;;;;;;5069358;28;20021;-88
2021/08/21 08:02:13;;;;;;;5.60;3.58;;;20.90;99.90;;;;;;5069491;28;20025;-89
2021/08/21 08:04:38;;;;;;;6.57;3.55;;;21.10;99.90;;;;;;5072683;28;20060;-89
2021/08/21 08:07:04;;;;;;;7.53;3.17;;;21.20;99.90;;;;;;5089019;28;20119;-89
2021/08/21 08:09:30;;;;;;;7.95;3.47;;;21.30;99.90;;;;;;5088794;28;20047;-89
2021/08/21 08:11:55;;;;;;;8.18;3.33;;;21.50;99.90;;;;;;5057527;28;20106;-89
2021/08/21 08:14:21;;;;;;;5.50;3.42;;;21.70;99.90;;;;;;5052140;28;20037;-88
2021/08/21 08:16:47;;;;;;;8.30;4.47;;;21.70;99.90;;;;;;5053467;28;20029;-87
2021/08/21 08:19:13;;;;;;;6.55;3.40;;;21.60;99.90;;;;;;5056909;28;20083;-88
2021/08/21 08:21:39;;;;;;;7.30;4.30;;;21.70;99.90;;;;;;5069002;28;20488;-88
2021/08/21 08:24:04;;;;;;;9.70;4.22;;;21.30;99.90;;;;;;5069173;28;20017;-88
2021/08/21 08:26:30;;;;;;;6.50;3.95;;;21.20;99.90;;;;;;5053813;28;20033;-88
2021/08/21 08:28:56;;;;;;;7.30;4.53;;;21.50;99.90;;;;;;5070553;28;20431;-89
2021/08/21 08:31:21;;;;;;;9.05;4.55;;;21.70;99.90;;;;;;5072382;28;20035;-89
2021/08/21 08:33:47;;;;;;;12.48;5.18;;;21.80;99.90;;;;;;5072400;28;20033;-89
2021/08/21 08:36:12;;;;;;;8.77;5.20;;;22.00;99.90;;;;;;5069903;28;20143;-89
2021/08/21 08:38:38;;;;;;;8.80;5.05;;;22.00;99.90;;;;;;5075412;28;20062;-89
2021/08/21 08:41:09;;;;;;;7.25;4.65;;;22.00;99.90;;;;;;5078695;28;20107;-88
2021/08/21 08:43:35;;;;;;;9.40;5.03;;;22.20;99.90;;;;;;5081953;28;20016;-88
2021/08/21 08:46:02;;;;;;;9.57;4.57;;;22.30;99.90;;;;;;5054864;28;20072;-88
2021/08/21 08:48:28;;;;;;;7.15;4.57;;;22.60;99.90;;;;;;5051988;28;20032;-89
2021/08/21 08:50:54;;;;;;;6.68;4.28;;;22.70;99.90;;;;;;5050780;28;20025;-89
2021/08/21 08:53:20;;;;;;;8.23;4.90;;;22.70;99.90;;;;;;5076722;28;20037;-88
2021/08/21 08:55:46;;;;;;;8.15;4.13;;;22.90;99.90;;;;;;5052046;28;20590;-89
2021/08/21 08:58:12;;;;;;;8.05;4.10;;;23.00;99.90;;;;;;5063952;28;20120;-91
2021/08/21 09:00:38;;;;;;;10.73;4.70;;;23.10;99.90;;;;;;5071848;28;20056;-90
2021/08/21 09:03:21;;;;;;;8.18;4.38;;;23.20;99.90;;;;;;5073586;28;20029;-90
2021/08/21 09:05:47;;;;;;;10.63;4.50;;;23.40;99.90;;;;;;5072204;28;20016;-90
2021/08/21 09:08:26;;;;;;;7.18;3.85;;;23.40;99.90;;;;;;5072508;28;20024;-91
2021/08/21 09:10:51;;;;;;;7.78;3.67;;;23.40;99.90;;;;;;5071660;28;20043;-91
2021/08/21 09:13:18;;;;;;;7.30;4.22;;;23.60;99.90;;;;;;5071376;28;20119;-90
2021/08/21 09:15:47;;;;;;;8.93;4.20;;;23.70;99.90;;;;;;5071694;28;20035;-91
2021/08/21 09:18:16;;;;;;;7.30;3.97;;;23.70;99.90;;;;;;5069207;28;20031;-90
2021/08/21 09:20:51;;;;;;;9.88;4.30;;;23.90;99.90;;;;;;5071655;28;20020;-90
2021/08/21 09:23:30;;;;;;;8.77;4.20;;;23.80;99.90;;;;;;5071838;28;20020;-91
2021/08/21 09:26:04;;;;;;;6.60;3.80;;;24.00;99.90;;;;;;5072158;28;20016;-89
2021/08/21 09:28:29;;;;;;;8.00;4.07;;;23.90;99.90;;;;;;5072566;28;20116;-90
2021/08/21 09:31:06;;;;;;;8.13;3.67;;;24.10;99.90;;;;;;5088672;28;20064;-91
2021/08/21 09:33:32;;;;;;;6.50;3.75;;;24.20;99.90;;;;;;5071763;28;20071;-90
2021/08/21 09:35:58;;;;;;;6.32;3.75;;;24.40;99.90;;;;;;5071840;28;20024;-90
2021/08/21 09:38:31;;;;;;;8.48;3.75;;;24.50;99.90;;;;;;5072542;28;20429;-90
2021/08/21 09:41:05;;;;;;;5.47;3.05;;;24.50;99.90;;;;;;5072575;28;20436;-90
2021/08/21 09:43:33;;;;;;;5.90;3.30;;;24.70;99.90;;;;;;5071849;28;20496;-90
2021/08/21 09:46:16;;;;;;;9.05;2.97;;;24.90;99.90;;;;;;5071758;28;20025;-90
2021/08/21 09:49:06;;;;;;;5.82;3.42;;;25.00;99.90;;;;;;5074616;28;20024;-91
2021/08/21 09:51:48;;;;;;;6.72;3.45;;;24.90;99.90;;;;;;5075956;28;20676;-90
2021/08/21 09:54:19;;;;;;;5.03;2.92;;;25.10;99.90;;;;;;5077963;28;20037;-91
2021/08/21 09:56:53;;;;;;;6.68;3.20;;;25.30;99.90;;;;;;5076419;28;20024;-91
2021/08/21 09:59:38;;;;;;;5.70;3.17;;;25.50;99.90;;;;;;5076476;28;20033;-90
2021/08/21 10:02:05;;;;;;;6.32;3.17;;;25.30;99.90;;;;;;5075478;28;20020;-90
2021/08/21 10:04:32;;;;;;;4.80;3.08;;;25.50;99.90;;;;;;5075744;28;20388;-90
2021/08/21 10:06:58;;;;;;;5.80;3.10;;;25.70;99.90;;;;;;5075899;28;20492;-91
2021/08/21 10:09:27;;;;;;;4.90;2.90;;;25.90;99.90;;;;;;5075757;28;20054;-90
2021/08/21 10:11:54;;;;;;;4.82;3.10;;;26.00;99.90;;;;;;5094085;28;20024;-91
2021/08/21 10:14:21;;;;;;;8.25;3.47;;;26.10;99.90;;;;;;5092585;28;20489;-90
2021/08/21 10:16:49;;;;;;;5.85;3.40;;;25.90;99.90;;;;;;5075226;28;20017;-90
2021/08/21 10:19:18;;;;;;;7.80;3.42;;;25.80;99.90;;;;;;5068757;28;20079;-87
2021/08/21 10:21:56;;;;;;;8.00;3.35;;;26.10;99.90;;;;;;5074248;28;20025;-87
2021/08/21 10:24:35;;;;;;;7.28;3.92;;;26.30;99.90;;;;;;5056467;28;20374;-87
2021/08/21 10:27:15;;;;;;;6.90;4.07;;;26.20;99.90;;;;;;5060135;28;20022;-81
2021/08/21 10:30:08;;;;;;;7.18;4.25;;;26.40;99.70;;;;;;5060036;28;20481;-81
2021/08/21 10:32:42;;;;;;;8.68;3.78;;;26.40;99.60;;;;;;5059012;28;20044;-81
2021/08/21 10:35:10;;;;;;;7.32;3.97;;;26.50;99.90;;;;;;5083424;22;20060;-79
2021/08/21 10:37:37;;;;;;;6.75;3.60;;;26.50;99.30;;;;;;5087038;28;20050;-78
2021/08/21 10:40:28;;;;;;;8.05;3.50;;;26.70;99.90;;;;;;5092468;28;20028;-79
2021/08/21 10:43:03;;;;;;;7.32;3.90;;;26.80;99.90;;;;;;5103755;28;20032;-79
2021/08/21 10:45:42;;;;;;;11.45;4.32;;;27.00;99.00;;;;;;5087971;28;20103;-79
2021/08/21 10:48:22;;;;;;;6.85;3.78;;;26.60;98.60;;;;;;5099538;28;20100;-79
2021/08/21 10:50:51;;;;;;;9.18;4.35;;;26.90;99.20;;;;;;5082223;28;20028;-79
2021/08/21 10:53:26;;;;;;;6.32;4.10;;;27.10;98.80;;;;;;5074749;28;20048;-79
2021/08/21 10:55:52;;;;;;;9.05;3.88;;;27.20;98.90;;;;;;5062145;28;20029;-79
2021/08/21 10:58:19;;;;;;;6.72;3.83;;;27.00;98.70;;;;;;5043845;28;20028;-78
2021/08/21 11:00:57;;;;;;;9.10;4.30;;;27.00;98.20;;;;;;5063074;28;20040;-79
2021/08/21 11:03:22;;;;;;;8.93;4.07;;;26.90;98.20;;;;;;5096800;28;20029;-79
2021/08/21 11:05:51;;;;;;;8.07;3.25;;;27.30;98.50;;;;;;5063805;28;20033;-79
2021/08/21 11:08:17;;;;;;;5.93;3.70;;;27.50;98.60;;;;;;5063900;28;20024;-80
2021/08/21 11:10:43;;;;;;;6.32;3.58;;;27.60;98.40;;;;;;5083151;28;20055;-78
2021/08/21 11:13:11;;;;;;;8.40;4.40;;;27.90;98.10;;;;;;5082316;28;20032;-79
2021/08/21 11:15:37;;;;;;;7.70;3.78;;;27.90;96.90;;;;;;5082436;28;20016;-80
2021/08/21 11:18:17;;;;;;;8.30;4.20;;;28.10;96.60;;;;;;5076611;28;20032;-78
2021/08/21 11:20:43;;;;;;;6.63;4.05;;;28.40;96.10;;;;;;5062147;28;20081;-80
2021/08/21 11:23:08;;;;;;;8.07;4.05;;;28.10;96.00;;;;;;5061202;28;20036;-79
2021/08/21 11:25:36;;;;;;;10.48;4.90;;;28.00;96.50;;;;;;5061712;28;20021;-79
2021/08/21 11:28:13;;;;;;;5.20;3.50;;;28.40;96.60;;;;;;5070084;28;20115;-78
2021/08/21 11:30:39;;;;;;;6.93;3.88;;;28.50;95.80;;;;;;5082706;28;20028;-79
2021/08/21 11:33:08;;;;;;;8.15;3.78;;;28.70;95.60;;;;;;5081907;28;20033;-79
2021/08/21 11:35:51;;;;;;;5.25;3.25;;;28.90;95.40;;;;;;5082207;28;20028;-80
2021/08/21 11:38:31;;;;;;;6.63;3.50;;;29.00;95.00;;;;;;5081551;28;20020;-79
2021/08/21 11:41:18;;;;;;;6.65;4.03;;;28.60;94.70;;;;;;5063758;28;20032;-80
2021/08/21 11:43:44;;;;;;;6.35;3.92;;;28.20;95.30;;;;;;5081540;28;20033;-80
2021/08/21 11:46:14;;;;;;;7.22;3.78;;;28.60;94.90;;;;;;5081452;28;20059;-79
2021/08/21 11:48:42;;;;;;;7.05;3.40;;;28.40;95.20;;;;;;5063604;28;20130;-80
2021/08/21 11:51:09;;;;;;;6.95;3.80;;;28.70;95.00;;;;;;5082281;28;20031;-80
2021/08/21 11:53:42;;;;;;;6.53;3.55;;;29.00;95.40;;;;;;5078757;28;20024;-79
2021/08/21 11:56:10;;;;;;;5.95;3.40;;;29.00;94.20;;;;;;5067594;28;20028;-80
2021/08/21 11:58:46;;;;;;;4.90;3.10;;;28.90;95.00;;;;;;5061464;28;20029;-84
2021/08/21 12:01:13;;;;;;;5.80;3.28;;;29.20;94.10;;;;;;5058950;28;20434;-84
2021/08/21 12:06:29;;;;;;;5.80;3.30;;;29.40;93.90;;;;;;5058872;28;20028;-84
2021/08/21 12:09:17;;;;;;;6.72;3.67;;;29.70;93.80;;;;;;5057865;28;20130;-84
2021/08/21 12:11:48;;;;;;;6.90;3.50;;;29.40;94.10;;;;;;5038764;28;20346;-83
2021/08/21 12:14:16;;;;;;;;;;;29.20;93.30;;;;;;5040056;28;20055;-84
2021/08/21 12:16:43;;;;;;;7.03;3.47;;;29.10;93.30;;;;;;5057919;28;19915;-84
2021/08/21 12:19:09;;;;;;;5.32;3.30;;;29.20;93.30;;;;;;5056994;28;20037;-84
2021/08/21 12:21:36;;;;;;;5.80;3.50;;;29.50;93.60;;;;;;5039828;28;20024;-84
2021/08/21 12:24:10;;;;;;;6.43;3.15;;;29.90;92.90;;;;;;5058831;28;20068;-84
2021/08/21 12:26:42;;;;;;;7.60;3.40;;;30.20;92.90;;;;;;5058043;28;20021;-84
2021/08/21 12:29:30;;;;;;;4.80;3.00;;;30.00;92.20;;;;;;5057168;28;20469;-84
2021/08/21 12:31:57;;;;;;;5.13;2.90;;;29.70;91.30;;;;;;5058103;28;20418;-84
2021/08/21 12:34:25;;;;;;;4.53;2.67;;;30.00;90.90;;;;;;5056943;28;20024;-84
2021/08/21 12:36:57;;;;;;;5.80;2.55;;;29.80;90.00;;;;;;5050769;28;20090;-84
2021/08/21 12:39:25;;;;;;;3.78;2.17;;;30.10;89.60;;;;;;5056416;28;20105;-82
2021/08/21 12:42:05;;;;;;;5.20;2.80;;;29.60;89.00;;;;;;5074213;28;20131;-82
2021/08/21 12:44:38;;;;;;;4.70;2.33;;;29.50;90.20;;;;;;5073895;28;20020;-82
2021/08/21 12:47:06;;;;;;;4.72;2.60;;;29.60;87.50;;;;;;5055627;28;20032;-82
2021/08/21 12:49:43;;;;;;;4.80;3.00;;;29.50;89.60;;;;;;5036009;28;20021;-82
2021/08/21 12:52:29;;;;;;;5.53;2.80;;;29.10;89.90;;;;;;5041214;28;20029;-82